sensor_id;sensor_type;location;lat;lon;timestamp;P1;durP1;ratioP1;P2;durP2;ratioP2
21539;SDS011;10931;52.164;5.518;2024-01-27T00:02:00;14.32;;;3.72;;
21539;SDS011;10931;52.164;5.518;2024-01-27T00:04:26;18.98;;;3.30;;
21539;SDS011;10931;52.164;5.518;2024-01-27T00:06:55;18.15;;;3.47;;
21539;SDS011;10931;52.164;5.518;2024-01-27T00:09:26;15.82;;;3.28;;
21539;SDS011;10931;52.164;5.518;2024-01-27T00:11:51;18.10;;;3.45;;
21539;SDS011;10931;52.164;5.518;2024-01-27T00:14:17;15.65;;;3.05;;
21539;SDS011;10931;52.164;5.518;2024-01-27T00:16:43;16.70;;;3.53;;
21539;SDS011;10931;52.164;5.518;2024-01-27T00:19:09;20.90;;;3.92;;
21539;SDS011;10931;52.164;5.518;2024-01-27T00:21:35;13.68;;;3.22;;
21539;SDS011;10931;52.164;5.518;2024-01-27T00:24:01;17.38;;;3.28;;
21539;SDS011;10931;52.164;5.518;2024-01-27T00:26:28;19.77;;;3.33;;
21539;SDS011;10931;52.164;5.518;2024-01-27T00:28:54;20.42;;;3.92;;
21539;SDS011;10931;52.164;5.518;2024-01-27T00:31:20;14.15;;;3.42;;
21539;SDS011;10931;52.164;5.518;2024-01-27T00:33:46;22.02;;;4.13;;
21539;SDS011;10931;52.164;5.518;2024-01-27T00:36:12;15.10;;;3.20;;
21539;SDS011;10931;52.164;5.518;2024-01-27T00:38:38;14.05;;;3.42;;
21539;SDS011;10931;52.164;5.518;2024-01-27T00:41:05;19.92;;;3.40;;
21539;SDS011;10931;52.164;5.518;2024-01-27T00:43:31;15.50;;;3.25;;
21539;SDS011;10931;52.164;5.518;2024-01-27T00:45:57;16.17;;;3.53;;
21539;SDS011;10931;52.164;5.518;2024-01-27T00:48:23;18.17;;;3.20;;
21539;SDS011;10931;52.164;5.518;2024-01-27T00:50:55;17.67;;;3.13;;
21539;SDS011;10931;52.164;5.518;2024-01-27T00:53:23;22.42;;;5.03;;
21539;SDS011;10931;52.164;5.518;2024-01-27T00:55:49;21.70;;;3.42;;
21539;SDS011;10931;52.164;5.518;2024-01-27T00:58:15;16.80;;;3.80;;
21539;SDS011;10931;52.164;5.518;2024-01-27T01:00:45;12.55;;;3.50;;
21539;SDS011;10931;52.164;5.518;2024-01-27T01:03:10;19.08;;;3.65;;
21539;SDS011;10931;52.164;5.518;2024-01-27T01:05:36;9.10;;;3.10;;
21539;SDS011;10931;52.164;5.518;2024-01-27T01:08:02;14.73;;;3.60;;
21539;SDS011;10931;52.164;5.518;2024-01-27T01:10:29;16.40;;;3.38;;
21539;SDS011;10931;52.164;5.518;2024-01-27T01:12:55;23.10;;;3.75;;
21539;SDS011;10931;52.164;5.518;2024-01-27T01:15:21;14.23;;;2.97;;
21539;SDS011;10931;52.164;5.518;2024-01-27T01:17:49;17.45;;;4.40;;
21539;SDS011;10931;52.164;5.518;2024-01-27T01:20:15;11.82;;;3.15;;
21539;SDS011;10931;52.164;5.518;2024-01-27T01:22:41;11.45;;;3.55;;
21539;SDS011;10931;52.164;5.518;2024-01-27T01:25:07;14.63;;;3.45;;
21539;SDS011;10931;52.164;5.518;2024-01-27T01:27:34;17.70;;;3.55;;
21539;SDS011;10931;52.164;5.518;2024-01-27T01:30:00;16.88;;;4.10;;
21539;SDS011;10931;52.164;5.518;2024-01-27T01:32:28;15.60;;;4.40;;
21539;SDS011;10931;52.164;5.518;2024-01-27T01:34:54;16.25;;;3.58;;
21539;SDS011;10931;52.164;5.518;2024-01-27T01:37:20;19.42;;;3.35;;
21539;SDS011;10931;52.164;5.518;2024-01-27T01:39:48;18.77;;;3.10;;
21539;SDS011;10931;52.164;5.518;2024-01-27T01:42:17;18.42;;;3.60;;
21539;SDS011;10931;52.164;5.518;2024-01-27T01:44:45;15.20;;;3.28;;
21539;SDS011;10931;52.164;5.518;2024-01-27T01:47:11;17.90;;;3.00;;
21539;SDS011;10931;52.164;5.518;2024-01-27T01:49:37;17.30;;;3.53;;
21539;SDS011;10931;52.164;5.518;2024-01-27T01:52:04;21.17;;;3.10;;
21539;SDS011;10931;52.164;5.518;2024-01-27T01:54:30;11.10;;;2.83;;
21539;SDS011;10931;52.164;5.518;2024-01-27T01:56:59;17.63;;;3.90;;
21539;SDS011;10931;52.164;5.518;2024-01-27T01:59:28;15.88;;;2.97;;
21539;SDS011;10931;52.164;5.518;2024-01-27T02:01:59;13.85;;;3.20;;
21539;SDS011;10931;52.164;5.518;2024-01-27T02:04:42;18.50;;;3.38;;
21539;SDS011;10931;52.164;5.518;2024-01-27T02:07:10;19.38;;;4.45;;
21539;SDS011;10931;52.164;5.518;2024-01-27T02:09:45;11.68;;;3.58;;
21539;SDS011;10931;52.164;5.518;2024-01-27T02:12:27;21.35;;;3.15;;
21539;SDS011;10931;52.164;5.518;2024-01-27T02:14:55;15.43;;;3.60;;
21539;SDS011;10931;52.164;5.518;2024-01-27T02:17:21;11.50;;;2.95;;
21539;SDS011;10931;52.164;5.518;2024-01-27T02:19:49;13.23;;;2.65;;
21539;SDS011;10931;52.164;5.518;2024-01-27T02:22:15;15.98;;;3.47;;
21539;SDS011;10931;52.164;5.518;2024-01-27T02:24:42;11.07;;;2.65;;
21539;SDS011;10931;52.164;5.518;2024-01-27T02:27:10;10.60;;;2.85;;
21539;SDS011;10931;52.164;5.518;2024-01-27T02:29:39;19.10;;;3.22;;
21539;SDS011;10931;52.164;5.518;2024-01-27T02:32:07;15.95;;;2.90;;
21539;SDS011;10931;52.164;5.518;2024-01-27T02:37:27;18.42;;;3.13;;
21539;SDS011;10931;52.164;5.518;2024-01-27T02:40:09;14.77;;;3.28;;
21539;SDS011;10931;52.164;5.518;2024-01-27T02:45:46;12.75;;;2.65;;
21539;SDS011;10931;52.164;5.518;2024-01-27T02:48:34;13.90;;;3.38;;
21539;SDS011;10931;52.164;5.518;2024-01-27T02:51:29;7.60;;;2.70;;
21539;SDS011;10931;52.164;5.518;2024-01-27T02:54:12;14.20;;;3.17;;
21539;SDS011;10931;52.164;5.518;2024-01-27T02:56:44;18.58;;;2.47;;
21539;SDS011;10931;52.164;5.518;2024-01-27T02:59:19;13.30;;;2.75;;
21539;SDS011;10931;52.164;5.518;2024-01-27T03:01:51;8.93;;;2.38;;
21539;SDS011;10931;52.164;5.518;2024-01-27T03:04:29;17.83;;;3.35;;
21539;SDS011;10931;52.164;5.518;2024-01-27T03:07:12;12.60;;;3.17;;
21539;SDS011;10931;52.164;5.518;2024-01-27T03:12:54;8.85;;;2.78;;
21539;SDS011;10931;52.164;5.518;2024-01-27T03:15:31;20.77;;;3.13;;
21539;SDS011;10931;52.164;5.518;2024-01-27T03:18:18;10.40;;;2.30;;
21539;SDS011;10931;52.164;5.518;2024-01-27T03:20:49;11.18;;;2.92;;
21539;SDS011;10931;52.164;5.518;2024-01-27T03:30:15;9.48;;;2.75;;
21539;SDS011;10931;52.164;5.518;2024-01-27T03:33:21;12.05;;;2.40;;
21539;SDS011;10931;52.164;5.518;2024-01-27T03:38:56;13.90;;;2.42;;
21539;SDS011;10931;52.164;5.518;2024-01-27T03:49:45;11.77;;;2.60;;
21539;SDS011;10931;52.164;5.518;2024-01-27T03:52:11;6.97;;;2.63;;
21539;SDS011;10931;52.164;5.518;2024-01-27T03:54:37;14.30;;;3.05;;
21539;SDS011;10931;52.164;5.518;2024-01-27T03:57:04;11.02;;;2.67;;
21539;SDS011;10931;52.164;5.518;2024-01-27T03:59:32;8.85;;;2.95;;
21539;SDS011;10931;52.164;5.518;2024-01-27T04:01:58;26.65;;;3.60;;
21539;SDS011;10931;52.164;5.518;2024-01-27T04:04:37;13.85;;;3.40;;
21539;SDS011;10931;52.164;5.518;2024-01-27T04:07:13;16.35;;;3.58;;
21539;SDS011;10931;52.164;5.518;2024-01-27T04:09:39;20.75;;;4.28;;
21539;SDS011;10931;52.164;5.518;2024-01-27T04:12:08;17.80;;;4.20;;
21539;SDS011;10931;52.164;5.518;2024-01-27T04:14:47;20.52;;;3.50;;
21539;SDS011;10931;52.164;5.518;2024-01-27T04:17:20;12.82;;;3.35;;
21539;SDS011;10931;52.164;5.518;2024-01-27T04:19:52;17.98;;;3.92;;
21539;SDS011;10931;52.164;5.518;2024-01-27T04:22:20;19.20;;;4.20;;
21539;SDS011;10931;52.164;5.518;2024-01-27T04:24:51;12.88;;;3.30;;
21539;SDS011;10931;52.164;5.518;2024-01-27T04:27:36;16.17;;;3.97;;
21539;SDS011;10931;52.164;5.518;2024-01-27T04:30:06;16.77;;;3.67;;
21539;SDS011;10931;52.164;5.518;2024-01-27T04:32:37;14.88;;;5.15;;
21539;SDS011;10931;52.164;5.518;2024-01-27T04:35:09;18.75;;;4.65;;
21539;SDS011;10931;52.164;5.518;2024-01-27T04:37:35;17.23;;;4.38;;
21539;SDS011;10931;52.164;5.518;2024-01-27T04:40:09;13.45;;;4.80;;
21539;SDS011;10931;52.164;5.518;2024-01-27T04:42:37;25.80;;;5.05;;
21539;SDS011;10931;52.164;5.518;2024-01-27T04:45:03;17.15;;;4.93;;
21539;SDS011;10931;52.164;5.518;2024-01-27T04:47:32;13.20;;;5.00;;
21539;SDS011;10931;52.164;5.518;2024-01-27T04:49:58;19.83;;;4.82;;
21539;SDS011;10931;52.164;5.518;2024-01-27T04:52:24;15.60;;;5.05;;
21539;SDS011;10931;52.164;5.518;2024-01-27T04:54:51;16.38;;;6.18;;
21539;SDS011;10931;52.164;5.518;2024-01-27T04:57:24;19.40;;;5.22;;
21539;SDS011;10931;52.164;5.518;2024-01-27T04:59:50;13.57;;;5.63;;
21539;SDS011;10931;52.164;5.518;2024-01-27T05:02:17;23.40;;;5.80;;
21539;SDS011;10931;52.164;5.518;2024-01-27T05:04:43;20.25;;;4.95;;
21539;SDS011;10931;52.164;5.518;2024-01-27T05:07:09;24.63;;;6.43;;
21539;SDS011;10931;52.164;5.518;2024-01-27T05:09:35;20.13;;;6.22;;
21539;SDS011;10931;52.164;5.518;2024-01-27T05:12:01;21.50;;;6.00;;
21539;SDS011;10931;52.164;5.518;2024-01-27T05:14:27;17.98;;;6.25;;
21539;SDS011;10931;52.164;5.518;2024-01-27T05:16:53;15.88;;;5.82;;
21539;SDS011;10931;52.164;5.518;2024-01-27T05:19:20;12.52;;;5.63;;
21539;SDS011;10931;52.164;5.518;2024-01-27T05:21:46;19.38;;;6.82;;
21539;SDS011;10931;52.164;5.518;2024-01-27T05:24:15;24.90;;;7.43;;
21539;SDS011;10931;52.164;5.518;2024-01-27T05:26:40;13.80;;;6.85;;
21539;SDS011;10931;52.164;5.518;2024-01-27T05:29:06;16.20;;;6.63;;
21539;SDS011;10931;52.164;5.518;2024-01-27T05:31:33;17.65;;;7.35;;
21539;SDS011;10931;52.164;5.518;2024-01-27T05:34:00;20.50;;;7.07;;
21539;SDS011;10931;52.164;5.518;2024-01-27T05:36:26;18.70;;;6.93;;
21539;SDS011;10931;52.164;5.518;2024-01-27T05:38:52;24.70;;;7.00;;
21539;SDS011;10931;52.164;5.518;2024-01-27T05:41:18;23.23;;;7.10;;
21539;SDS011;10931;52.164;5.518;2024-01-27T05:43:44;22.52;;;7.13;;
21539;SDS011;10931;52.164;5.518;2024-01-27T05:46:11;21.13;;;7.70;;
21539;SDS011;10931;52.164;5.518;2024-01-27T05:48:39;23.13;;;6.53;;
21539;SDS011;10931;52.164;5.518;2024-01-27T05:51:05;16.40;;;7.55;;
21539;SDS011;10931;52.164;5.518;2024-01-27T05:53:31;20.27;;;7.18;;
21539;SDS011;10931;52.164;5.518;2024-01-27T05:55:57;17.63;;;7.43;;
21539;SDS011;10931;52.164;5.518;2024-01-27T05:58:23;17.92;;;7.15;;
21539;SDS011;10931;52.164;5.518;2024-01-27T06:00:49;23.30;;;8.50;;
21539;SDS011;10931;52.164;5.518;2024-01-27T06:03:15;22.02;;;8.23;;
21539;SDS011;10931;52.164;5.518;2024-01-27T06:05:42;19.85;;;7.38;;
21539;SDS011;10931;52.164;5.518;2024-01-27T06:08:08;17.50;;;7.50;;
21539;SDS011;10931;52.164;5.518;2024-01-27T06:10:34;19.73;;;7.97;;
21539;SDS011;10931;52.164;5.518;2024-01-27T06:13:03;22.05;;;8.23;;
21539;SDS011;10931;52.164;5.518;2024-01-27T06:15:29;14.80;;;7.50;;
21539;SDS011;10931;52.164;5.518;2024-01-27T06:17:56;20.38;;;7.82;;
21539;SDS011;10931;52.164;5.518;2024-01-27T06:20:22;23.88;;;7.85;;
21539;SDS011;10931;52.164;5.518;2024-01-27T06:22:49;19.30;;;8.52;;
21539;SDS011;10931;52.164;5.518;2024-01-27T06:25:17;22.95;;;8.50;;
21539;SDS011;10931;52.164;5.518;2024-01-27T06:27:46;19.73;;;8.23;;
21539;SDS011;10931;52.164;5.518;2024-01-27T06:30:12;24.38;;;7.80;;
21539;SDS011;10931;52.164;5.518;2024-01-27T06:32:41;19.40;;;8.13;;
21539;SDS011;10931;52.164;5.518;2024-01-27T06:35:11;22.83;;;9.20;;
21539;SDS011;10931;52.164;5.518;2024-01-27T06:37:39;15.10;;;7.10;;
21539;SDS011;10931;52.164;5.518;2024-01-27T06:40:06;19.10;;;7.93;;
21539;SDS011;10931;52.164;5.518;2024-01-27T06:42:34;26.30;;;9.68;;
21539;SDS011;10931;52.164;5.518;2024-01-27T06:45:00;23.77;;;9.68;;
21539;SDS011;10931;52.164;5.518;2024-01-27T06:47:29;21.95;;;8.82;;
21539;SDS011;10931;52.164;5.518;2024-01-27T06:49:55;20.35;;;9.35;;
21539;SDS011;10931;52.164;5.518;2024-01-27T06:52:21;20.98;;;9.73;;
21539;SDS011;10931;52.164;5.518;2024-01-27T06:54:54;18.83;;;8.73;;
21539;SDS011;10931;52.164;5.518;2024-01-27T06:57:21;18.33;;;9.10;;
21539;SDS011;10931;52.164;5.518;2024-01-27T06:59:47;26.05;;;9.65;;
21539;SDS011;10931;52.164;5.518;2024-01-27T07:02:18;25.02;;;10.07;;
21539;SDS011;10931;52.164;5.518;2024-01-27T07:04:47;26.35;;;9.85;;
21539;SDS011;10931;52.164;5.518;2024-01-27T07:07:20;20.45;;;9.88;;
21539;SDS011;10931;52.164;5.518;2024-01-27T07:09:48;21.73;;;9.52;;
21539;SDS011;10931;52.164;5.518;2024-01-27T07:12:15;20.52;;;9.00;;
21539;SDS011;10931;52.164;5.518;2024-01-27T07:14:41;23.27;;;9.82;;
21539;SDS011;10931;52.164;5.518;2024-01-27T07:17:07;23.58;;;9.93;;
21539;SDS011;10931;52.164;5.518;2024-01-27T07:19:33;20.63;;;10.00;;
21539;SDS011;10931;52.164;5.518;2024-01-27T07:21:59;27.15;;;10.63;;
21539;SDS011;10931;52.164;5.518;2024-01-27T07:24:26;26.50;;;10.73;;
21539;SDS011;10931;52.164;5.518;2024-01-27T07:26:52;24.42;;;10.40;;
21539;SDS011;10931;52.164;5.518;2024-01-27T07:29:18;24.35;;;10.50;;
21539;SDS011;10931;52.164;5.518;2024-01-27T07:31:49;28.88;;;10.25;;
21539;SDS011;10931;52.164;5.518;2024-01-27T07:34:15;21.67;;;9.68;;
21539;SDS011;10931;52.164;5.518;2024-01-27T07:36:41;23.45;;;9.75;;
21539;SDS011;10931;52.164;5.518;2024-01-27T07:39:07;25.50;;;10.68;;
21539;SDS011;10931;52.164;5.518;2024-01-27T07:41:33;25.13;;;9.65;;
21539;SDS011;10931;52.164;5.518;2024-01-27T07:44:10;20.95;;;9.95;;
21539;SDS011;10931;52.164;5.518;2024-01-27T07:46:40;22.00;;;9.95;;
21539;SDS011;10931;52.164;5.518;2024-01-27T07:49:07;21.15;;;9.52;;
21539;SDS011;10931;52.164;5.518;2024-01-27T07:51:33;23.27;;;10.98;;
21539;SDS011;10931;52.164;5.518;2024-01-27T07:54:02;29.35;;;10.20;;
21539;SDS011;10931;52.164;5.518;2024-01-27T07:56:30;20.92;;;10.27;;
21539;SDS011;10931;52.164;5.518;2024-01-27T07:58:56;25.52;;;10.60;;
21539;SDS011;10931;52.164;5.518;2024-01-27T08:01:22;18.98;;;10.00;;
21539;SDS011;10931;52.164;5.518;2024-01-27T08:03:49;25.15;;;10.27;;
21539;SDS011;10931;52.164;5.518;2024-01-27T08:06:15;29.23;;;9.95;;
21539;SDS011;10931;52.164;5.518;2024-01-27T08:08:46;26.70;;;9.82;;
21539;SDS011;10931;52.164;5.518;2024-01-27T08:11:19;21.50;;;11.00;;
21539;SDS011;10931;52.164;5.518;2024-01-27T08:13:50;34.70;;;10.63;;
21539;SDS011;10931;52.164;5.518;2024-01-27T08:16:17;30.05;;;10.30;;
21539;SDS011;10931;52.164;5.518;2024-01-27T08:18:43;20.55;;;10.23;;
21539;SDS011;10931;52.164;5.518;2024-01-27T08:21:10;31.80;;;9.88;;
21539;SDS011;10931;52.164;5.518;2024-01-27T08:23:37;26.23;;;10.30;;
21539;SDS011;10931;52.164;5.518;2024-01-27T08:26:03;22.55;;;9.98;;
21539;SDS011;10931;52.164;5.518;2024-01-27T08:28:29;18.23;;;10.18;;
21539;SDS011;10931;52.164;5.518;2024-01-27T08:30:55;23.83;;;9.82;;
21539;SDS011;10931;52.164;5.518;2024-01-27T08:33:21;23.73;;;10.30;;
21539;SDS011;10931;52.164;5.518;2024-01-27T08:35:47;22.58;;;11.82;;
21539;SDS011;10931;52.164;5.518;2024-01-27T08:38:13;24.48;;;9.98;;
21539;SDS011;10931;52.164;5.518;2024-01-27T08:40:47;20.55;;;9.57;;
21539;SDS011;10931;52.164;5.518;2024-01-27T08:43:16;20.55;;;9.35;;
21539;SDS011;10931;52.164;5.518;2024-01-27T08:45:42;19.75;;;9.52;;
21539;SDS011;10931;52.164;5.518;2024-01-27T08:48:11;23.05;;;10.27;;
21539;SDS011;10931;52.164;5.518;2024-01-27T08:50:41;22.10;;;9.07;;
21539;SDS011;10931;52.164;5.518;2024-01-27T08:53:08;26.17;;;9.52;;
21539;SDS011;10931;52.164;5.518;2024-01-27T08:55:41;23.85;;;8.90;;
21539;SDS011;10931;52.164;5.518;2024-01-27T08:58:10;23.90;;;9.43;;
21539;SDS011;10931;52.164;5.518;2024-01-27T09:00:36;27.90;;;9.35;;
21539;SDS011;10931;52.164;5.518;2024-01-27T09:03:04;18.95;;;8.57;;
21539;SDS011;10931;52.164;5.518;2024-01-27T09:05:30;30.23;;;9.82;;
21539;SDS011;10931;52.164;5.518;2024-01-27T09:07:56;24.08;;;9.68;;
21539;SDS011;10931;52.164;5.518;2024-01-27T09:10:25;24.55;;;9.27;;
21539;SDS011;10931;52.164;5.518;2024-01-27T09:12:54;23.27;;;9.30;;
21539;SDS011;10931;52.164;5.518;2024-01-27T09:15:23;26.80;;;9.50;;
21539;SDS011;10931;52.164;5.518;2024-01-27T09:17:56;23.50;;;8.98;;
21539;SDS011;10931;52.164;5.518;2024-01-27T09:20:22;24.23;;;9.52;;
21539;SDS011;10931;52.164;5.518;2024-01-27T09:22:50;21.83;;;9.15;;
21539;SDS011;10931;52.164;5.518;2024-01-27T09:25:24;23.00;;;9.35;;
21539;SDS011;10931;52.164;5.518;2024-01-27T09:27:53;25.23;;;9.57;;
21539;SDS011;10931;52.164;5.518;2024-01-27T09:30:24;19.50;;;8.65;;
21539;SDS011;10931;52.164;5.518;2024-01-27T09:32:52;27.25;;;9.57;;
21539;SDS011;10931;52.164;5.518;2024-01-27T09:35:21;19.60;;;9.35;;
21539;SDS011;10931;52.164;5.518;2024-01-27T09:37:50;23.02;;;9.80;;
21539;SDS011;10931;52.164;5.518;2024-01-27T09:40:18;22.92;;;9.85;;
21539;SDS011;10931;52.164;5.518;2024-01-27T09:45:35;25.52;;;9.95;;
21539;SDS011;10931;52.164;5.518;2024-01-27T09:48:01;22.77;;;8.95;;
21539;SDS011;10931;52.164;5.518;2024-01-27T09:50:30;25.73;;;9.82;;
21539;SDS011;10931;52.164;5.518;2024-01-27T09:52:59;24.95;;;9.77;;
21539;SDS011;10931;52.164;5.518;2024-01-27T09:55:35;22.77;;;9.93;;
21539;SDS011;10931;52.164;5.518;2024-01-27T09:58:05;21.38;;;8.75;;
21539;SDS011;10931;52.164;5.518;2024-01-27T10:00:43;27.10;;;8.52;;
21539;SDS011;10931;52.164;5.518;2024-01-27T10:05:55;28.77;;;9.38;;
21539;SDS011;10931;52.164;5.518;2024-01-27T10:08:25;26.90;;;9.52;;
21539;SDS011;10931;52.164;5.518;2024-01-27T10:10:56;20.00;;;8.88;;
21539;SDS011;10931;52.164;5.518;2024-01-27T10:13:33;15.77;;;8.68;;
21539;SDS011;10931;52.164;5.518;2024-01-27T10:16:08;30.02;;;10.20;;
21539;SDS011;10931;52.164;5.518;2024-01-27T10:18:42;23.58;;;9.00;;
21539;SDS011;10931;52.164;5.518;2024-01-27T10:21:18;28.70;;;9.43;;
21539;SDS011;10931;52.164;5.518;2024-01-27T10:24:03;20.63;;;9.23;;
21539;SDS011;10931;52.164;5.518;2024-01-27T10:26:33;24.27;;;8.98;;
21539;SDS011;10931;52.164;5.518;2024-01-27T10:29:10;24.15;;;9.10;;
21539;SDS011;10931;52.164;5.518;2024-01-27T10:32:06;25.25;;;9.02;;
21539;SDS011;10931;52.164;5.518;2024-01-27T10:35:04;23.77;;;8.20;;
21539;SDS011;10931;52.164;5.518;2024-01-27T10:37:38;31.58;;;9.45;;
21539;SDS011;10931;52.164;5.518;2024-01-27T10:40:25;18.58;;;7.72;;
21539;SDS011;10931;52.164;5.518;2024-01-27T10:43:11;31.38;;;8.90;;
21539;SDS011;10931;52.164;5.518;2024-01-27T10:45:44;22.05;;;8.05;;
21539;SDS011;10931;52.164;5.518;2024-01-27T10:48:20;32.58;;;9.57;;
21539;SDS011;10931;52.164;5.518;2024-01-27T10:50:53;18.88;;;7.68;;
21539;SDS011;10931;52.164;5.518;2024-01-27T10:53:29;14.77;;;6.95;;
21539;SDS011;10931;52.164;5.518;2024-01-27T10:56:04;29.58;;;8.80;;
21539;SDS011;10931;52.164;5.518;2024-01-27T10:59:04;20.05;;;7.75;;
21539;SDS011;10931;52.164;5.518;2024-01-27T11:02:05;21.67;;;8.45;;
21539;SDS011;10931;52.164;5.518;2024-01-27T11:04:44;22.80;;;8.45;;
21539;SDS011;10931;52.164;5.518;2024-01-27T11:10:23;19.17;;;8.90;;
21539;SDS011;10931;52.164;5.518;2024-01-27T11:15:56;21.27;;;7.80;;
21539;SDS011;10931;52.164;5.518;2024-01-27T11:18:41;14.60;;;6.80;;
21539;SDS011;10931;52.164;5.518;2024-01-27T11:21:42;20.40;;;7.63;;
21539;SDS011;10931;52.164;5.518;2024-01-27T11:24:47;25.10;;;6.90;;
21539;SDS011;10931;52.164;5.518;2024-01-27T11:27:44;25.92;;;7.25;;
21539;SDS011;10931;52.164;5.518;2024-01-27T11:45:12;20.13;;;6.38;;
21539;SDS011;10931;52.164;5.518;2024-01-27T11:58:18;21.85;;;5.40;;
21539;SDS011;10931;52.164;5.518;2024-01-27T12:01:12;22.35;;;5.72;;
21539;SDS011;10931;52.164;5.518;2024-01-27T12:04:30;19.13;;;5.45;;
21539;SDS011;10931;52.164;5.518;2024-01-27T12:07:17;19.73;;;5.68;;
21539;SDS011;10931;52.164;5.518;2024-01-27T12:10:33;19.17;;;5.63;;
21539;SDS011;10931;52.164;5.518;2024-01-27T12:19:56;18.67;;;6.15;;
21539;SDS011;10931;52.164;5.518;2024-01-27T12:29:21;22.25;;;5.45;;
21539;SDS011;10931;52.164;5.518;2024-01-27T12:31:52;17.83;;;5.10;;
21539;SDS011;10931;52.164;5.518;2024-01-27T12:35:06;15.10;;;4.72;;
21539;SDS011;10931;52.164;5.518;2024-01-27T14:32:54;22.40;;;6.22;;
21539;SDS011;10931;52.164;5.518;2024-01-27T14:35:42;15.70;;;5.95;;
21539;SDS011;10931;52.164;5.518;2024-01-27T14:38:56;26.58;;;6.78;;
21539;SDS011;10931;52.164;5.518;2024-01-27T14:41:34;18.23;;;5.60;;
21539;SDS011;10931;52.164;5.518;2024-01-27T14:48:10;25.98;;;5.63;;
21539;SDS011;10931;52.164;5.518;2024-01-27T14:54:24;17.55;;;5.82;;
21539;SDS011;10931;52.164;5.518;2024-01-27T15:07:10;21.00;;;4.78;;
21539;SDS011;10931;52.164;5.518;2024-01-27T15:09:53;23.48;;;5.90;;
21539;SDS011;10931;52.164;5.518;2024-01-27T15:13:12;17.92;;;5.25;;
21539;SDS011;10931;52.164;5.518;2024-01-27T15:19:35;18.10;;;5.35;;
21539;SDS011;10931;52.164;5.518;2024-01-27T15:22:26;19.63;;;6.22;;
21539;SDS011;10931;52.164;5.518;2024-01-27T15:25:53;20.27;;;5.63;;
21539;SDS011;10931;52.164;5.518;2024-01-27T15:28:40;24.27;;;5.95;;
21539;SDS011;10931;52.164;5.518;2024-01-27T15:31:14;17.85;;;6.00;;
21539;SDS011;10931;52.164;5.518;2024-01-27T15:33:57;17.73;;;5.30;;
21539;SDS011;10931;52.164;5.518;2024-01-27T15:36:48;19.58;;;5.93;;
21539;SDS011;10931;52.164;5.518;2024-01-27T15:39:29;27.23;;;5.95;;
21539;SDS011;10931;52.164;5.518;2024-01-27T15:45:36;18.95;;;6.20;;
21539;SDS011;10931;52.164;5.518;2024-01-27T15:48:12;16.42;;;5.55;;
21539;SDS011;10931;52.164;5.518;2024-01-27T15:51:03;19.48;;;5.55;;
21539;SDS011;10931;52.164;5.518;2024-01-27T15:53:51;15.38;;;5.80;;
21539;SDS011;10931;52.164;5.518;2024-01-27T15:56:47;20.23;;;5.78;;
21539;SDS011;10931;52.164;5.518;2024-01-27T15:59:23;21.15;;;6.70;;
21539;SDS011;10931;52.164;5.518;2024-01-27T16:02:07;17.98;;;5.85;;
21539;SDS011;10931;52.164;5.518;2024-01-27T16:05:11;23.40;;;6.10;;
21539;SDS011;10931;52.164;5.518;2024-01-27T16:07:39;15.57;;;5.68;;
21539;SDS011;10931;52.164;5.518;2024-01-27T16:10:39;23.55;;;5.63;;
21539;SDS011;10931;52.164;5.518;2024-01-27T16:19:38;30.08;;;12.98;;
21539;SDS011;10931;52.164;5.518;2024-01-27T16:26:32;20.80;;;7.80;;
21539;SDS011;10931;52.164;5.518;2024-01-27T16:28:52;21.67;;;9.75;;
21539;SDS011;10931;52.164;5.518;2024-01-27T16:31:39;32.33;;;9.70;;
21539;SDS011;10931;52.164;5.518;2024-01-27T16:34:39;34.78;;;15.65;;
21539;SDS011;10931;52.164;5.518;2024-01-27T16:37:16;39.63;;;17.75;;
21539;SDS011;10931;52.164;5.518;2024-01-27T16:40:40;36.47;;;15.98;;
21539;SDS011;10931;52.164;5.518;2024-01-27T16:50:11;34.55;;;12.68;;
21539;SDS011;10931;52.164;5.518;2024-01-27T16:53:15;36.30;;;12.20;;
21539;SDS011;10931;52.164;5.518;2024-01-27T16:59:05;33.00;;;11.70;;
21539;SDS011;10931;52.164;5.518;2024-01-27T17:05:23;38.85;;;13.93;;
21539;SDS011;10931;52.164;5.518;2024-01-27T17:07:56;34.83;;;13.63;;
21539;SDS011;10931;52.164;5.518;2024-01-27T17:10:51;34.38;;;14.05;;
21539;SDS011;10931;52.164;5.518;2024-01-27T17:16:40;41.60;;;12.68;;
21539;SDS011;10931;52.164;5.518;2024-01-27T17:19:22;24.17;;;10.25;;
21539;SDS011;10931;52.164;5.518;2024-01-27T17:21:58;21.83;;;10.23;;
21539;SDS011;10931;52.164;5.518;2024-01-27T17:24:37;34.33;;;11.32;;
21539;SDS011;10931;52.164;5.518;2024-01-27T17:27:13;30.13;;;12.35;;
21539;SDS011;10931;52.164;5.518;2024-01-27T17:30:23;34.22;;;12.73;;
21539;SDS011;10931;52.164;5.518;2024-01-27T17:33:17;26.55;;;10.68;;
21539;SDS011;10931;52.164;5.518;2024-01-27T17:35:54;30.60;;;11.57;;
21539;SDS011;10931;52.164;5.518;2024-01-27T17:38:34;30.17;;;9.98;;
21539;SDS011;10931;52.164;5.518;2024-01-27T17:41:17;26.85;;;10.32;;
21539;SDS011;10931;52.164;5.518;2024-01-27T17:44:17;29.38;;;10.75;;
21539;SDS011;10931;52.164;5.518;2024-01-27T17:46:45;28.23;;;10.40;;
21539;SDS011;10931;52.164;5.518;2024-01-27T17:49:19;28.90;;;9.57;;
21539;SDS011;10931;52.164;5.518;2024-01-27T17:51:58;25.73;;;9.15;;
21539;SDS011;10931;52.164;5.518;2024-01-27T18:00:27;25.25;;;8.60;;
21539;SDS011;10931;52.164;5.518;2024-01-27T18:03:39;34.30;;;9.45;;
21539;SDS011;10931;52.164;5.518;2024-01-27T18:06:16;31.05;;;10.02;;
21539;SDS011;10931;52.164;5.518;2024-01-27T18:08:56;23.83;;;10.00;;
21539;SDS011;10931;52.164;5.518;2024-01-27T18:14:40;31.80;;;10.25;;
21539;SDS011;10931;52.164;5.518;2024-01-27T18:20:30;23.42;;;8.02;;
21539;SDS011;10931;52.164;5.518;2024-01-27T18:22:59;31.00;;;9.07;;
21539;SDS011;10931;52.164;5.518;2024-01-27T18:25:38;25.05;;;8.38;;
21539;SDS011;10931;52.164;5.518;2024-01-27T18:28:38;24.75;;;8.82;;
21539;SDS011;10931;52.164;5.518;2024-01-27T18:31:09;22.50;;;8.07;;
21539;SDS011;10931;52.164;5.518;2024-01-27T18:36:49;22.75;;;8.35;;
21539;SDS011;10931;52.164;5.518;2024-01-27T18:39:54;24.23;;;8.13;;
21539;SDS011;10931;52.164;5.518;2024-01-27T18:42:34;29.95;;;8.63;;
21539;SDS011;10931;52.164;5.518;2024-01-27T18:45:24;21.25;;;8.20;;
21539;SDS011;10931;52.164;5.518;2024-01-27T18:48:10;31.05;;;9.35;;
21539;SDS011;10931;52.164;5.518;2024-01-27T18:50:49;23.50;;;7.85;;
21539;SDS011;10931;52.164;5.518;2024-01-27T18:53:17;30.73;;;9.98;;
21539;SDS011;10931;52.164;5.518;2024-01-27T18:56:02;22.02;;;8.52;;
21539;SDS011;10931;52.164;5.518;2024-01-27T18:58:39;26.38;;;8.75;;
21539;SDS011;10931;52.164;5.518;2024-01-27T19:01:16;25.17;;;9.52;;
21539;SDS011;10931;52.164;5.518;2024-01-27T19:07:32;26.25;;;8.77;;
21539;SDS011;10931;52.164;5.518;2024-01-27T19:10:29;27.45;;;10.20;;
21539;SDS011;10931;52.164;5.518;2024-01-27T19:19:08;23.42;;;8.30;;
21539;SDS011;10931;52.164;5.518;2024-01-27T19:21:46;29.25;;;10.00;;
21539;SDS011;10931;52.164;5.518;2024-01-27T19:24:31;18.67;;;8.88;;
21539;SDS011;10931;52.164;5.518;2024-01-27T19:32:39;27.20;;;8.90;;
21539;SDS011;10931;52.164;5.518;2024-01-27T19:35:10;20.75;;;8.02;;
21539;SDS011;10931;52.164;5.518;2024-01-27T19:37:54;25.23;;;9.18;;
21539;SDS011;10931;52.164;5.518;2024-01-27T19:40:44;29.50;;;8.80;;
21539;SDS011;10931;52.164;5.518;2024-01-27T19:46:45;18.90;;;8.70;;
21539;SDS011;10931;52.164;5.518;2024-01-27T19:49:19;30.77;;;9.60;;
21539;SDS011;10931;52.164;5.518;2024-01-27T19:51:55;27.27;;;9.43;;
21539;SDS011;10931;52.164;5.518;2024-01-27T19:54:48;32.35;;;10.43;;